sensor_id;sensor_type;location;lat;lon;timestamp;P1;durP1;ratioP1;P2;durP2;ratioP2
32130;SDS011;18639;50.716;7.086;2022-11-20T00:00:22;8.55;;;2.72;;
32130;SDS011;18639;50.716;7.086;2022-11-20T00:02:48;8.98;;;3.38;;
32130;SDS011;18639;50.716;7.086;2022-11-20T00:05:13;8.70;;;2.70;;
32130;SDS011;18639;50.716;7.086;2022-11-20T00:07:38;7.45;;;2.70;;
32130;SDS011;18639;50.716;7.086;2022-11-20T00:10:04;11.70;;;3.40;;
32130;SDS011;18639;50.716;7.086;2022-11-20T00:12:29;5.68;;;2.22;;
32130;SDS011;18639;50.716;7.086;2022-11-20T00:14:54;8.57;;;2.10;;
32130;SDS011;18639;50.716;7.086;2022-11-20T00:17:20;8.18;;;2.85;;
32130;SDS011;18639;50.716;7.086;2022-11-20T00:19:45;6.88;;;2.78;;
32130;SDS011;18639;50.716;7.086;2022-11-20T00:22:10;9.70;;;3.40;;
32130;SDS011;18639;50.716;7.086;2022-11-20T00:24:36;9.35;;;3.53;;
32130;SDS011;18639;50.716;7.086;2022-11-20T00:27:01;5.55;;;2.35;;
32130;SDS011;18639;50.716;7.086;2022-11-20T00:29:26;12.43;;;3.22;;
32130;SDS011;18639;50.716;7.086;2022-11-20T00:31:51;8.50;;;2.90;;
32130;SDS011;18639;50.716;7.086;2022-11-20T00:34:17;8.45;;;3.08;;
32130;SDS011;18639;50.716;7.086;2022-11-20T00:36:42;9.23;;;2.42;;
32130;SDS011;18639;50.716;7.086;2022-11-20T00:39:07;6.57;;;3.03;;
32130;SDS011;18639;50.716;7.086;2022-11-20T00:41:33;9.80;;;3.47;;
32130;SDS011;18639;50.716;7.086;2022-11-20T00:43:58;7.88;;;2.75;;
32130;SDS011;18639;50.716;7.086;2022-11-20T00:46:24;6.38;;;2.58;;
32130;SDS011;18639;50.716;7.086;2022-11-20T00:48:52;8.95;;;3.17;;
32130;SDS011;18639;50.716;7.086;2022-11-20T00:51:18;6.90;;;3.00;;
32130;SDS011;18639;50.716;7.086;2022-11-20T00:53:46;11.13;;;3.35;;
32130;SDS011;18639;50.716;7.086;2022-11-20T00:56:12;6.95;;;3.05;;
32130;SDS011;18639;50.716;7.086;2022-11-20T00:58:40;9.30;;;3.00;;
32130;SDS011;18639;50.716;7.086;2022-11-20T01:01:11;11.85;;;2.55;;
32130;SDS011;18639;50.716;7.086;2022-11-20T01:03:39;10.20;;;2.97;;
32130;SDS011;18639;50.716;7.086;2022-11-20T01:06:11;11.35;;;3.20;;
32130;SDS011;18639;50.716;7.086;2022-11-20T01:08:38;6.93;;;2.50;;
32130;SDS011;18639;50.716;7.086;2022-11-20T01:11:11;10.05;;;3.13;;
32130;SDS011;18639;50.716;7.086;2022-11-20T01:13:41;9.30;;;3.35;;
32130;SDS011;18639;50.716;7.086;2022-11-20T01:18:40;8.85;;;3.28;;
32130;SDS011;18639;50.716;7.086;2022-11-20T01:21:09;8.52;;;2.78;;
32130;SDS011;18639;50.716;7.086;2022-11-20T01:23:40;9.82;;;3.45;;
32130;SDS011;18639;50.716;7.086;2022-11-20T01:26:07;6.68;;;2.50;;
32130;SDS011;18639;50.716;7.086;2022-11-20T01:28:41;14.80;;;3.20;;
32130;SDS011;18639;50.716;7.086;2022-11-20T01:31:14;10.15;;;2.83;;
32130;SDS011;18639;50.716;7.086;2022-11-20T01:33:43;7.20;;;2.65;;
32130;SDS011;18639;50.716;7.086;2022-11-20T01:36:09;7.90;;;3.50;;
32130;SDS011;18639;50.716;7.086;2022-11-20T01:38:35;11.60;;;3.03;;
32130;SDS011;18639;50.716;7.086;2022-11-20T01:41:01;7.32;;;2.53;;
32130;SDS011;18639;50.716;7.086;2022-11-20T01:43:26;8.43;;;2.90;;
32130;SDS011;18639;50.716;7.086;2022-11-20T01:48:34;7.88;;;2.80;;
32130;SDS011;18639;50.716;7.086;2022-11-20T01:51:03;7.50;;;2.53;;
32130;SDS011;18639;50.716;7.086;2022-11-20T01:53:32;6.05;;;2.47;;
32130;SDS011;18639;50.716;7.086;2022-11-20T01:56:01;8.25;;;2.75;;
32130;SDS011;18639;50.716;7.086;2022-11-20T01:58:32;7.78;;;3.10;;
32130;SDS011;18639;50.716;7.086;2022-11-20T02:01:00;7.97;;;3.08;;
32130;SDS011;18639;50.716;7.086;2022-11-20T02:03:25;11.63;;;2.53;;
32130;SDS011;18639;50.716;7.086;2022-11-20T02:06:01;10.32;;;3.38;;
32130;SDS011;18639;50.716;7.086;2022-11-20T02:08:41;11.60;;;3.47;;
32130;SDS011;18639;50.716;7.086;2022-11-20T02:11:06;10.40;;;3.47;;
32130;SDS011;18639;50.716;7.086;2022-11-20T02:13:33;6.88;;;2.38;;
32130;SDS011;18639;50.716;7.086;2022-11-20T02:16:08;8.10;;;2.55;;
32130;SDS011;18639;50.716;7.086;2022-11-20T02:18:55;10.25;;;3.22;;
32130;SDS011;18639;50.716;7.086;2022-11-20T02:24:17;8.80;;;2.97;;
32130;SDS011;18639;50.716;7.086;2022-11-20T02:27:06;6.93;;;2.85;;
32130;SDS011;18639;50.716;7.086;2022-11-20T02:29:33;8.68;;;3.13;;
32130;SDS011;18639;50.716;7.086;2022-11-20T02:32:02;9.07;;;2.80;;
32130;SDS011;18639;50.716;7.086;2022-11-20T02:37:50;7.82;;;3.28;;
32130;SDS011;18639;50.716;7.086;2022-11-20T02:40:17;5.50;;;2.63;;
32130;SDS011;18639;50.716;7.086;2022-11-20T02:42:43;9.20;;;3.30;;
32130;SDS011;18639;50.716;7.086;2022-11-20T02:45:08;7.45;;;3.42;;
32130;SDS011;18639;50.716;7.086;2022-11-20T02:47:34;9.95;;;3.38;;
32130;SDS011;18639;50.716;7.086;2022-11-20T02:49:59;9.18;;;3.03;;
32130;SDS011;18639;50.716;7.086;2022-11-20T02:52:25;5.40;;;2.42;;
32130;SDS011;18639;50.716;7.086;2022-11-20T02:54:50;8.45;;;2.97;;
32130;SDS011;18639;50.716;7.086;2022-11-20T02:57:15;7.88;;;3.22;;
32130;SDS011;18639;50.716;7.086;2022-11-20T02:59:41;7.38;;;2.60;;
32130;SDS011;18639;50.716;7.086;2022-11-20T03:02:06;8.65;;;3.15;;
32130;SDS011;18639;50.716;7.086;2022-11-20T03:04:31;12.38;;;2.55;;
32130;SDS011;18639;50.716;7.086;2022-11-20T03:06:56;9.88;;;3.08;;
32130;SDS011;18639;50.716;7.086;2022-11-20T03:09:22;10.32;;;3.08;;
32130;SDS011;18639;50.716;7.086;2022-11-20T03:11:47;10.13;;;3.10;;
32130;SDS011;18639;50.716;7.086;2022-11-20T03:14:12;9.05;;;3.38;;
32130;SDS011;18639;50.716;7.086;2022-11-20T03:16:38;11.50;;;3.38;;
32130;SDS011;18639;50.716;7.086;2022-11-20T03:19:03;12.45;;;3.60;;
32130;SDS011;18639;50.716;7.086;2022-11-20T03:21:28;5.45;;;2.17;;
32130;SDS011;18639;50.716;7.086;2022-11-20T03:23:54;7.53;;;2.53;;
32130;SDS011;18639;50.716;7.086;2022-11-20T03:26:21;11.70;;;2.90;;
32130;SDS011;18639;50.716;7.086;2022-11-20T03:28:49;7.25;;;2.53;;
32130;SDS011;18639;50.716;7.086;2022-11-20T03:31:23;7.47;;;2.95;;
32130;SDS011;18639;50.716;7.086;2022-11-20T03:33:53;8.52;;;2.78;;
32130;SDS011;18639;50.716;7.086;2022-11-20T03:36:20;12.00;;;2.78;;
32130;SDS011;18639;50.716;7.086;2022-11-20T03:38:46;8.23;;;3.22;;
32130;SDS011;18639;50.716;7.086;2022-11-20T03:41:13;11.30;;;3.40;;
32130;SDS011;18639;50.716;7.086;2022-11-20T03:43:41;8.55;;;3.17;;
32130;SDS011;18639;50.716;7.086;2022-11-20T03:46:07;7.72;;;2.75;;
32130;SDS011;18639;50.716;7.086;2022-11-20T03:48:32;7.93;;;2.90;;
32130;SDS011;18639;50.716;7.086;2022-11-20T03:53:37;10.77;;;3.00;;
32130;SDS011;18639;50.716;7.086;2022-11-20T03:56:03;12.30;;;3.78;;
32130;SDS011;18639;50.716;7.086;2022-11-20T03:58:29;12.15;;;3.00;;
32130;SDS011;18639;50.716;7.086;2022-11-20T04:00:54;9.13;;;3.45;;
32130;SDS011;18639;50.716;7.086;2022-11-20T04:03:20;11.23;;;3.05;;
32130;SDS011;18639;50.716;7.086;2022-11-20T04:05:45;7.63;;;3.00;;
32130;SDS011;18639;50.716;7.086;2022-11-20T04:08:10;13.40;;;3.72;;
32130;SDS011;18639;50.716;7.086;2022-11-20T04:10:35;8.55;;;3.17;;
32130;SDS011;18639;50.716;7.086;2022-11-20T04:13:01;11.27;;;2.95;;
32130;SDS011;18639;50.716;7.086;2022-11-20T04:15:26;11.27;;;2.80;;
32130;SDS011;18639;50.716;7.086;2022-11-20T04:17:51;12.98;;;2.97;;
32130;SDS011;18639;50.716;7.086;2022-11-20T04:20:17;11.55;;;4.05;;
32130;SDS011;18639;50.716;7.086;2022-11-20T04:22:42;9.00;;;2.78;;
32130;SDS011;18639;50.716;7.086;2022-11-20T04:25:07;6.95;;;2.78;;
32130;SDS011;18639;50.716;7.086;2022-11-20T04:27:33;10.85;;;3.42;;
32130;SDS011;18639;50.716;7.086;2022-11-20T04:29:58;8.35;;;2.78;;
32130;SDS011;18639;50.716;7.086;2022-11-20T04:32:23;10.75;;;3.00;;
32130;SDS011;18639;50.716;7.086;2022-11-20T04:34:49;13.77;;;2.55;;
32130;SDS011;18639;50.716;7.086;2022-11-20T04:37:14;8.63;;;2.72;;
32130;SDS011;18639;50.716;7.086;2022-11-20T04:39:39;9.45;;;3.63;;
32130;SDS011;18639;50.716;7.086;2022-11-20T04:42:05;6.43;;;2.50;;
32130;SDS011;18639;50.716;7.086;2022-11-20T04:44:49;11.43;;;3.10;;
32130;SDS011;18639;50.716;7.086;2022-11-20T04:47:14;7.07;;;3.15;;
32130;SDS011;18639;50.716;7.086;2022-11-20T04:49:39;10.30;;;3.17;;
32130;SDS011;18639;50.716;7.086;2022-11-20T04:52:05;8.02;;;2.38;;
32130;SDS011;18639;50.716;7.086;2022-11-20T04:54:30;9.65;;;2.78;;
32130;SDS011;18639;50.716;7.086;2022-11-20T04:56:55;9.27;;;2.97;;
32130;SDS011;18639;50.716;7.086;2022-11-20T04:59:20;10.20;;;3.28;;
32130;SDS011;18639;50.716;7.086;2022-11-20T05:01:46;9.35;;;3.78;;
32130;SDS011;18639;50.716;7.086;2022-11-20T05:04:11;10.75;;;3.28;;
32130;SDS011;18639;50.716;7.086;2022-11-20T05:06:36;10.73;;;3.15;;
32130;SDS011;18639;50.716;7.086;2022-11-20T05:09:02;6.97;;;3.17;;
32130;SDS011;18639;50.716;7.086;2022-11-20T05:11:27;9.82;;;3.15;;
32130;SDS011;18639;50.716;7.086;2022-11-20T05:13:54;7.38;;;2.85;;
32130;SDS011;18639;50.716;7.086;2022-11-20T05:16:23;9.88;;;2.78;;
32130;SDS011;18639;50.716;7.086;2022-11-20T05:18:49;7.72;;;2.72;;
32130;SDS011;18639;50.716;7.086;2022-11-20T05:21:17;7.82;;;3.05;;
32130;SDS011;18639;50.716;7.086;2022-11-20T05:23:43;11.13;;;3.20;;
32130;SDS011;18639;50.716;7.086;2022-11-20T05:26:16;8.05;;;3.08;;
32130;SDS011;18639;50.716;7.086;2022-11-20T05:28:44;11.80;;;3.30;;
32130;SDS011;18639;50.716;7.086;2022-11-20T05:31:10;11.55;;;3.00;;
32130;SDS011;18639;50.716;7.086;2022-11-20T05:33:39;10.57;;;3.15;;
32130;SDS011;18639;50.716;7.086;2022-11-20T05:36:05;9.38;;;3.05;;
32130;SDS011;18639;50.716;7.086;2022-11-20T05:38:31;6.28;;;2.90;;
32130;SDS011;18639;50.716;7.086;2022-11-20T05:41:02;10.88;;;3.13;;
32130;SDS011;18639;50.716;7.086;2022-11-20T05:43:38;11.75;;;3.35;;
32130;SDS011;18639;50.716;7.086;2022-11-20T05:46:06;8.35;;;2.53;;
32130;SDS011;18639;50.716;7.086;2022-11-20T05:48:32;7.05;;;3.03;;
32130;SDS011;18639;50.716;7.086;2022-11-20T05:50:58;7.80;;;2.88;;
32130;SDS011;18639;50.716;7.086;2022-11-20T05:53:25;8.35;;;3.28;;
32130;SDS011;18639;50.716;7.086;2022-11-20T05:56:04;11.13;;;3.67;;
32130;SDS011;18639;50.716;7.086;2022-11-20T05:58:37;7.72;;;3.03;;
32130;SDS011;18639;50.716;7.086;2022-11-20T06:01:06;11.00;;;2.95;;
32130;SDS011;18639;50.716;7.086;2022-11-20T06:03:34;9.80;;;3.50;;
32130;SDS011;18639;50.716;7.086;2022-11-20T06:06:00;7.38;;;3.03;;
32130;SDS011;18639;50.716;7.086;2022-11-20T06:08:26;8.35;;;2.90;;
32130;SDS011;18639;50.716;7.086;2022-11-20T06:10:51;13.32;;;3.25;;
32130;SDS011;18639;50.716;7.086;2022-11-20T06:13:17;9.82;;;2.88;;
32130;SDS011;18639;50.716;7.086;2022-11-20T06:15:47;15.80;;;3.28;;
32130;SDS011;18639;50.716;7.086;2022-11-20T06:18:13;8.68;;;2.97;;
32130;SDS011;18639;50.716;7.086;2022-11-20T06:20:38;8.32;;;2.97;;
32130;SDS011;18639;50.716;7.086;2022-11-20T06:23:04;8.90;;;3.20;;
32130;SDS011;18639;50.716;7.086;2022-11-20T06:25:29;14.43;;;3.35;;
32130;SDS011;18639;50.716;7.086;2022-11-20T06:27:54;13.05;;;3.92;;
32130;SDS011;18639;50.716;7.086;2022-11-20T06:30:19;6.78;;;3.20;;
32130;SDS011;18639;50.716;7.086;2022-11-20T06:32:45;11.23;;;2.97;;
32130;SDS011;18639;50.716;7.086;2022-11-20T06:35:10;8.32;;;2.90;;
32130;SDS011;18639;50.716;7.086;2022-11-20T06:37:35;15.30;;;3.10;;
32130;SDS011;18639;50.716;7.086;2022-11-20T06:40:00;12.07;;;3.25;;
32130;SDS011;18639;50.716;7.086;2022-11-20T06:42:26;13.77;;;3.50;;
32130;SDS011;18639;50.716;7.086;2022-11-20T06:44:51;11.23;;;3.47;;
32130;SDS011;18639;50.716;7.086;2022-11-20T06:47:16;7.88;;;3.08;;
32130;SDS011;18639;50.716;7.086;2022-11-20T06:49:41;9.23;;;2.83;;
32130;SDS011;18639;50.716;7.086;2022-11-20T06:52:07;11.93;;;3.65;;
32130;SDS011;18639;50.716;7.086;2022-11-20T06:54:32;16.50;;;3.58;;
32130;SDS011;18639;50.716;7.086;2022-11-20T06:56:57;11.30;;;3.33;;
32130;SDS011;18639;50.716;7.086;2022-11-20T06:59:22;10.20;;;3.50;;
32130;SDS011;18639;50.716;7.086;2022-11-20T07:01:48;8.50;;;2.40;;
32130;SDS011;18639;50.716;7.086;2022-11-20T07:04:13;20.15;;;3.85;;
32130;SDS011;18639;50.716;7.086;2022-11-20T07:06:38;9.10;;;2.55;;
32130;SDS011;18639;50.716;7.086;2022-11-20T07:09:03;14.10;;;3.42;;
32130;SDS011;18639;50.716;7.086;2022-11-20T07:11:29;11.75;;;2.35;;
32130;SDS011;18639;50.716;7.086;2022-11-20T07:13:54;11.40;;;2.88;;
32130;SDS011;18639;50.716;7.086;2022-11-20T07:16:21;11.90;;;3.95;;
32130;SDS011;18639;50.716;7.086;2022-11-20T07:18:47;8.80;;;2.80;;
32130;SDS011;18639;50.716;7.086;2022-11-20T07:21:12;9.95;;;3.00;;
32130;SDS011;18639;50.716;7.086;2022-11-20T07:23:37;11.20;;;2.85;;
32130;SDS011;18639;50.716;7.086;2022-11-20T07:26:03;9.63;;;3.33;;
32130;SDS011;18639;50.716;7.086;2022-11-20T07:28:33;9.50;;;3.10;;
32130;SDS011;18639;50.716;7.086;2022-11-20T07:30:59;10.90;;;2.95;;
32130;SDS011;18639;50.716;7.086;2022-11-20T07:33:24;9.35;;;2.92;;
32130;SDS011;18639;50.716;7.086;2022-11-20T07:35:49;6.18;;;2.72;;
32130;SDS011;18639;50.716;7.086;2022-11-20T07:38:15;8.07;;;2.88;;
32130;SDS011;18639;50.716;7.086;2022-11-20T07:40:40;6.43;;;2.90;;
32130;SDS011;18639;50.716;7.086;2022-11-20T07:43:05;9.88;;;3.35;;
32130;SDS011;18639;50.716;7.086;2022-11-20T07:45:31;9.48;;;3.17;;
32130;SDS011;18639;50.716;7.086;2022-11-20T07:47:56;6.60;;;2.75;;
32130;SDS011;18639;50.716;7.086;2022-11-20T07:50:21;8.80;;;3.42;;
32130;SDS011;18639;50.716;7.086;2022-11-20T07:52:46;7.85;;;2.53;;
32130;SDS011;18639;50.716;7.086;2022-11-20T07:55:12;11.82;;;3.25;;
32130;SDS011;18639;50.716;7.086;2022-11-20T07:57:37;10.27;;;3.78;;
32130;SDS011;18639;50.716;7.086;2022-11-20T08:00:03;11.00;;;3.33;;
32130;SDS011;18639;50.716;7.086;2022-11-20T08:02:29;6.53;;;2.67;;
32130;SDS011;18639;50.716;7.086;2022-11-20T08:04:55;7.60;;;2.60;;
32130;SDS011;18639;50.716;7.086;2022-11-20T08:07:20;9.90;;;2.72;;
32130;SDS011;18639;50.716;7.086;2022-11-20T08:09:45;8.82;;;3.70;;
32130;SDS011;18639;50.716;7.086;2022-11-20T08:12:16;7.60;;;2.67;;
32130;SDS011;18639;50.716;7.086;2022-11-20T08:15:02;7.97;;;3.15;;
32130;SDS011;18639;50.716;7.086;2022-11-20T08:17:28;5.75;;;2.22;;
32130;SDS011;18639;50.716;7.086;2022-11-20T08:19:53;9.80;;;2.90;;
32130;SDS011;18639;50.716;7.086;2022-11-20T08:22:19;8.85;;;3.40;;
32130;SDS011;18639;50.716;7.086;2022-11-20T08:24:45;9.23;;;3.33;;
32130;SDS011;18639;50.716;7.086;2022-11-20T08:27:10;8.50;;;3.20;;
32130;SDS011;18639;50.716;7.086;2022-11-20T08:29:35;11.52;;;3.08;;
32130;SDS011;18639;50.716;7.086;2022-11-20T08:32:01;7.63;;;2.95;;
32130;SDS011;18639;50.716;7.086;2022-11-20T08:34:26;8.90;;;2.90;;
32130;SDS011;18639;50.716;7.086;2022-11-20T08:36:51;10.27;;;3.55;;
32130;SDS011;18639;50.716;7.086;2022-11-20T08:39:16;8.20;;;2.95;;
32130;SDS011;18639;50.716;7.086;2022-11-20T08:41:42;10.68;;;2.95;;
32130;SDS011;18639;50.716;7.086;2022-11-20T08:44:07;6.63;;;2.75;;
32130;SDS011;18639;50.716;7.086;2022-11-20T08:46:34;10.27;;;3.40;;
32130;SDS011;18639;50.716;7.086;2022-11-20T08:49:02;6.53;;;3.15;;
32130;SDS011;18639;50.716;7.086;2022-11-20T08:51:31;13.13;;;3.25;;
32130;SDS011;18639;50.716;7.086;2022-11-20T08:53:57;11.02;;;3.47;;
32130;SDS011;18639;50.716;7.086;2022-11-20T08:56:23;5.43;;;2.80;;
32130;SDS011;18639;50.716;7.086;2022-11-20T08:58:49;11.05;;;3.80;;
32130;SDS011;18639;50.716;7.086;2022-11-20T09:01:16;9.95;;;3.25;;
32130;SDS011;18639;50.716;7.086;2022-11-20T09:03:42;11.75;;;2.90;;
32130;SDS011;18639;50.716;7.086;2022-11-20T09:06:07;9.00;;;3.63;;
32130;SDS011;18639;50.716;7.086;2022-11-20T09:08:33;11.80;;;3.50;;
32130;SDS011;18639;50.716;7.086;2022-11-20T09:11:00;13.43;;;3.55;;
32130;SDS011;18639;50.716;7.086;2022-11-20T09:13:26;12.23;;;3.65;;
32130;SDS011;18639;50.716;7.086;2022-11-20T09:15:56;10.10;;;3.55;;
32130;SDS011;18639;50.716;7.086;2022-11-20T09:18:24;9.88;;;3.72;;
32130;SDS011;18639;50.716;7.086;2022-11-20T09:20:51;9.00;;;3.50;;
32130;SDS011;18639;50.716;7.086;2022-11-20T09:23:16;9.43;;;3.47;;
32130;SDS011;18639;50.716;7.086;2022-11-20T09:25:42;8.57;;;3.30;;
32130;SDS011;18639;50.716;7.086;2022-11-20T09:28:08;9.52;;;3.40;;
32130;SDS011;18639;50.716;7.086;2022-11-20T09:30:34;9.43;;;3.33;;
32130;SDS011;18639;50.716;7.086;2022-11-20T09:32:59;10.05;;;3.28;;
32130;SDS011;18639;50.716;7.086;2022-11-20T09:35:24;11.80;;;3.38;;
32130;SDS011;18639;50.716;7.086;2022-11-20T09:37:50;7.90;;;2.85;;
32130;SDS011;18639;50.716;7.086;2022-11-20T09:40:28;13.77;;;3.40;;
32130;SDS011;18639;50.716;7.086;2022-11-20T09:48:12;10.23;;;3.55;;
32130;SDS011;18639;50.716;7.086;2022-11-20T09:50:46;8.82;;;3.20;;
32130;SDS011;18639;50.716;7.086;2022-11-20T09:53:27;7.57;;;2.42;;
32130;SDS011;18639;50.716;7.086;2022-11-20T09:56:00;9.85;;;3.47;;
32130;SDS011;18639;50.716;7.086;2022-11-20T09:58:44;10.93;;;3.35;;
32130;SDS011;18639;50.716;7.086;2022-11-20T10:01:13;11.18;;;3.47;;
32130;SDS011;18639;50.716;7.086;2022-11-20T10:03:45;7.70;;;3.17;;
32130;SDS011;18639;50.716;7.086;2022-11-20T10:06:22;8.30;;;3.65;;
32130;SDS011;18639;50.716;7.086;2022-11-20T10:11:35;8.82;;;2.67;;
32130;SDS011;18639;50.716;7.086;2022-11-20T10:14:41;10.43;;;2.80;;
32130;SDS011;18639;50.716;7.086;2022-11-20T10:17:51;7.82;;;2.65;;
32130;SDS011;18639;50.716;7.086;2022-11-20T10:20:38;8.88;;;2.45;;
32130;SDS011;18639;50.716;7.086;2022-11-20T10:23:15;9.18;;;3.08;;
32130;SDS011;18639;50.716;7.086;2022-11-20T10:25:56;8.75;;;2.80;;
32130;SDS011;18639;50.716;7.086;2022-11-20T10:34:18;10.43;;;2.72;;
32130;SDS011;18639;50.716;7.086;2022-11-20T10:37:01;8.32;;;2.13;;
32130;SDS011;18639;50.716;7.086;2022-11-20T10:42:16;8.13;;;2.55;;
32130;SDS011;18639;50.716;7.086;2022-11-20T10:44:47;9.38;;;2.83;;
32130;SDS011;18639;50.716;7.086;2022-11-20T10:47:26;9.10;;;2.42;;
32130;SDS011;18639;50.716;7.086;2022-11-20T10:49:53;9.95;;;2.67;;
32130;SDS011;18639;50.716;7.086;2022-11-20T10:55:13;8.02;;;2.55;;
32130;SDS011;18639;50.716;7.086;2022-11-20T11:00:45;8.18;;;2.80;;
32130;SDS011;18639;50.716;7.086;2022-11-20T11:03:29;7.30;;;3.13;;
32130;SDS011;18639;50.716;7.086;2022-11-20T11:06:04;10.35;;;2.90;;
32130;SDS011;18639;50.716;7.086;2022-11-20T11:08:40;9.45;;;2.60;;
32130;SDS011;18639;50.716;7.086;2022-11-20T11:13:48;7.25;;;2.63;;
32130;SDS011;18639;50.716;7.086;2022-11-20T11:16:26;7.70;;;3.33;;
32130;SDS011;18639;50.716;7.086;2022-11-20T11:19:02;6.30;;;2.25;;
32130;SDS011;18639;50.716;7.086;2022-11-20T11:21:38;6.65;;;2.33;;
32130;SDS011;18639;50.716;7.086;2022-11-20T11:24:14;7.95;;;2.42;;
32130;SDS011;18639;50.716;7.086;2022-11-20T11:26:50;6.32;;;2.30;;
32130;SDS011;18639;50.716;7.086;2022-11-20T11:29:36;8.30;;;2.58;;
32130;SDS011;18639;50.716;7.086;2022-11-20T11:34:36;10.93;;;2.60;;
32130;SDS011;18639;50.716;7.086;2022-11-20T11:37:01;7.90;;;2.53;;
32130;SDS011;18639;50.716;7.086;2022-11-20T11:39:28;7.30;;;3.00;;
32130;SDS011;18639;50.716;7.086;2022-11-20T11:41:56;8.70;;;3.13;;
32130;SDS011;18639;50.716;7.086;2022-11-20T11:44:24;9.20;;;2.65;;
32130;SDS011;18639;50.716;7.086;2022-11-20T11:47:24;6.00;;;2.47;;
32130;SDS011;18639;50.716;7.086;2022-11-20T11:52:56;7.32;;;2.08;;
32130;SDS011;18639;50.716;7.086;2022-11-20T11:55:27;12.73;;;3.80;;
32130;SDS011;18639;50.716;7.086;2022-11-20T11:57:59;10.55;;;3.42;;
32130;SDS011;18639;50.716;7.086;2022-11-20T12:00:57;8.18;;;2.78;;
32130;SDS011;18639;50.716;7.086;2022-11-20T12:03:28;9.93;;;2.97;;
32130;SDS011;18639;50.716;7.086;2022-11-20T12:06:01;8.85;;;3.15;;
32130;SDS011;18639;50.716;7.086;2022-11-20T12:14:00;8.07;;;3.38;;
32130;SDS011;18639;50.716;7.086;2022-11-20T12:16:35;8.32;;;3.35;;
32130;SDS011;18639;50.716;7.086;2022-11-20T12:19:03;6.47;;;2.58;;
32130;SDS011;18639;50.716;7.086;2022-11-20T12:21:49;5.90;;;2.78;;
32130;SDS011;18639;50.716;7.086;2022-11-20T12:34:48;9.30;;;2.75;;
32130;SDS011;18639;50.716;7.086;2022-11-20T12:40:44;9.75;;;3.15;;
32130;SDS011;18639;50.716;7.086;2022-11-20T12:49:28;8.05;;;2.85;;
32130;SDS011;18639;50.716;7.086;2022-11-20T12:52:06;10.13;;;3.13;;
32130;SDS011;18639;50.716;7.086;2022-11-20T13:00:09;10.68;;;3.55;;
32130;SDS011;18639;50.716;7.086;2022-11-20T13:05:21;12.48;;;3.85;;
32130;SDS011;18639;50.716;7.086;2022-11-20T13:07:53;9.02;;;2.88;;
32130;SDS011;18639;50.716;7.086;2022-11-20T13:10:35;11.45;;;3.38;;
32130;SDS011;18639;50.716;7.086;2022-11-20T13:16:08;9.25;;;2.75;;
32130;SDS011;18639;50.716;7.086;2022-11-20T13:18:39;7.82;;;2.30;;
32130;SDS011;18639;50.716;7.086;2022-11-20T13:21:14;9.70;;;3.35;;
32130;SDS011;18639;50.716;7.086;2022-11-20T13:23:41;12.88;;;2.58;;
32130;SDS011;18639;50.716;7.086;2022-11-20T13:26:17;6.78;;;2.60;;
32130;SDS011;18639;50.716;7.086;2022-11-20T13:28:45;9.50;;;3.15;;
32130;SDS011;18639;50.716;7.086;2022-11-20T13:31:29;8.32;;;2.70;;
32130;SDS011;18639;50.716;7.086;2022-11-20T13:33:57;7.65;;;2.50;;
32130;SDS011;18639;50.716;7.086;2022-11-20T13:36:27;4.35;;;1.85;;
32130;SDS011;18639;50.716;7.086;2022-11-20T13:38:54;8.13;;;2.83;;
32130;SDS011;18639;50.716;7.086;2022-11-20T13:41:31;8.88;;;2.90;;
32130;SDS011;18639;50.716;7.086;2022-11-20T13:46:37;7.43;;;2.67;;
32130;SDS011;18639;50.716;7.086;2022-11-20T13:49:06;6.85;;;2.47;;
32130;SDS011;18639;50.716;7.086;2022-11-20T13:51:40;6.57;;;3.17;;
32130;SDS011;18639;50.716;7.086;2022-11-20T13:54:14;9.73;;;3.00;;
32130;SDS011;18639;50.716;7.086;2022-11-20T13:59:53;7.30;;;2.25;;
32130;SDS011;18639;50.716;7.086;2022-11-20T14:02:23;9.70;;;3.17;;
32130;SDS011;18639;50.716;7.086;2022-11-20T14:04:53;8.88;;;2.90;;
32130;SDS011;18639;50.716;7.086;2022-11-20T14:07:22;7.45;;;3.10;;
32130;SDS011;18639;50.716;7.086;2022-11-20T14:09:53;7.53;;;2.65;;
32130;SDS011;18639;50.716;7.086;2022-11-20T14:12:22;6.22;;;2.53;;
32130;SDS011;18639;50.716;7.086;2022-11-20T14:14:53;4.75;;;2.20;;
32130;SDS011;18639;50.716;7.086;2022-11-20T14:19:54;10.35;;;3.05;;
32130;SDS011;18639;50.716;7.086;2022-11-20T14:22:24;9.48;;;2.65;;
32130;SDS011;18639;50.716;7.086;2022-11-20T14:25:04;7.88;;;2.40;;
32130;SDS011;18639;50.716;7.086;2022-11-20T14:27:40;5.57;;;2.20;;
32130;SDS011;18639;50.716;7.086;2022-11-20T14:30:17;4.68;;;2.05;;
32130;SDS011;18639;50.716;7.086;2022-11-20T14:32:45;7.22;;;2.88;;
32130;SDS011;18639;50.716;7.086;2022-11-20T14:35:25;4.85;;;2.47;;
32130;SDS011;18639;50.716;7.086;2022-11-20T14:37:53;6.25;;;2.55;;
32130;SDS011;18639;50.716;7.086;2022-11-20T14:40:26;4.93;;;2.00;;
32130;SDS011;18639;50.716;7.086;2022-11-20T14:43:01;5.68;;;2.50;;
32130;SDS011;18639;50.716;7.086;2022-11-20T14:45:42;8.25;;;2.28;;
32130;SDS011;18639;50.716;7.086;2022-11-20T14:48:08;3.67;;;1.77;;
32130;SDS011;18639;50.716;7.086;2022-11-20T14:50:35;7.90;;;2.28;;
32130;SDS011;18639;50.716;7.086;2022-11-20T14:53:02;6.03;;;2.65;;
32130;SDS011;18639;50.716;7.086;2022-11-20T14:55:37;5.45;;;1.85;;
32130;SDS011;18639;50.716;7.086;2022-11-20T15:00:31;4.82;;;2.25;;
32130;SDS011;18639;50.716;7.086;2022-11-20T15:02:57;6.80;;;2.67;;
32130;SDS011;18639;50.716;7.086;2022-11-20T15:05:25;6.55;;;2.22;;
32130;SDS011;18639;50.716;7.086;2022-11-20T15:08:08;3.53;;;1.45;;
32130;SDS011;18639;50.716;7.086;2022-11-20T15:10:35;6.50;;;2.33;;
32130;SDS011;18639;50.716;7.086;2022-11-20T15:13:05;6.45;;;2.00;;
32130;SDS011;18639;50.716;7.086;2022-11-20T15:15:50;8.70;;;2.38;;
32130;SDS011;18639;50.716;7.086;2022-11-20T15:18:21;6.43;;;1.98;;
32130;SDS011;18639;50.716;7.086;2022-11-20T15:20:51;5.60;;;2.03;;
32130;SDS011;18639;50.716;7.086;2022-11-20T15:23:19;4.45;;;1.75;;
32130;SDS011;18639;50.716;7.086;2022-11-20T15:25:45;3.67;;;1.80;;
32130;SDS011;18639;50.716;7.086;2022-11-20T15:28:19;4.80;;;1.67;;
32130;SDS011;18639;50.716;7.086;2022-11-20T15:30:47;9.32;;;2.10;;
32130;SDS011;18639;50.716;7.086;2022-11-20T15:33:14;2.88;;;1.33;;
32130;SDS011;18639;50.716;7.086;2022-11-20T15:35:40;4.22;;;1.42;;
32130;SDS011;18639;50.716;7.086;2022-11-20T15:38:06;1.55;;;0.70;;
32130;SDS011;18639;50.716;7.086;2022-11-20T15:40:31;1.77;;;0.77;;
32130;SDS011;18639;50.716;7.086;2022-11-20T15:42:57;1.95;;;1.10;;
32130;SDS011;18639;50.716;7.086;2022-11-20T15:45:28;2.83;;;0.95;;
32130;SDS011;18639;50.716;7.086;2022-11-20T15:47:58;2.05;;;1.15;;
32130;SDS011;18639;50.716;7.086;2022-11-20T15:50:29;1.67;;;0.93;;
32130;SDS011;18639;50.716;7.086;2022-11-20T15:53:01;1.60;;;0.90;;
32130;SDS011;18639;50.716;7.086;2022-11-20T15:55:26;1.92;;;1.10;;
32130;SDS011;18639;50.716;7.086;2022-11-20T15:57:52;2.25;;;1.27;;
32130;SDS011;18639;50.716;7.086;2022-11-20T16:00:17;2.78;;;1.30;;
32130;SDS011;18639;50.716;7.086;2022-11-20T16:02:42;1.70;;;0.90;;
32130;SDS011;18639;50.716;7.086;2022-11-20T16:05:11;2.17;;;1.23;;
32130;SDS011;18639;50.716;7.086;2022-11-20T16:07:38;1.70;;;1.05;;
32130;SDS011;18639;50.716;7.086;2022-11-20T16:10:03;1.88;;;1.00;;
32130;SDS011;18639;50.716;7.086;2022-11-20T16:12:29;1.73;;;0.90;;
32130;SDS011;18639;50.716;7.086;2022-11-20T16:15:13;1.23;;;0.88;;
32130;SDS011;18639;50.716;7.086;2022-11-20T16:17:57;1.95;;;0.82;;
32130;SDS011;18639;50.716;7.086;2022-11-20T16:20:22;2.17;;;0.90;;
32130;SDS011;18639;50.716;7.086;2022-11-20T16:22:48;1.55;;;0.80;;
32130;SDS011;18639;50.716;7.086;2022-11-20T16:25:13;5.82;;;1.10;;